Time;durP1;ratioP1;P1;durP2;ratioP2;P2;SDS_P1;SDS_P2;PMS_P1;PMS_P2;Temp;Humidity;BMP_temperature;BMP_pressure;BME280_temperature;BME280_humidity;BME280_pressure;Samples;Min_cycle;Max_cycle;Signal;HPM_P1;HPM_P2
2023/09/17 00:00:56;;;;;;;32.92;21.52;;;;;;;;;;5006470;28;20410;-69
2023/09/17 00:03:21;;;;;;;42.20;21.92;;;;;;;;;;5008540;28;20018;-67
2023/09/17 00:05:47;;;;;;;34.58;19.15;;;;;;;;;;5008589;28;20026;-67
2023/09/17 00:08:12;;;;;;;36.58;20.05;;;;;;;;;;5008784;28;20026;-67
2023/09/17 00:10:39;;;;;;;38.03;20.55;;;;;;;;;;5008450;28;20021;-65
2023/09/17 00:13:04;;;;;;;32.85;18.98;;;;;;;;;;5005475;28;20022;-67
2023/09/17 00:15:29;;;;;;;34.58;20.10;;;;;;;;;;5009084;28;20072;-67
2023/09/17 00:17:54;;;;;;;32.00;20.63;;;;;;;;;;5009065;28;20010;-66
2023/09/17 00:20:20;;;;;;;42.80;21.00;;;;;;;;;;5009380;28;20072;-67
2023/09/17 00:22:45;;;;;;;29.83;19.02;;;;;;;;;;5009639;28;20068;-68
2023/09/17 00:25:11;;;;;;;34.42;20.30;;;;;;;;;;5009057;28;20032;-66
2023/09/17 00:27:36;;;;;;;33.13;19.50;;;;;;;;;;5009542;28;20018;-64
2023/09/17 00:30:01;;;;;;;38.40;20.63;;;;;;;;;;5008663;28;20473;-67
2023/09/17 00:32:26;;;;;;;28.95;18.83;;;;;;;;;;5008343;28;20448;-67
2023/09/17 00:34:52;;;;;;;32.13;19.92;;;;;;;;;;5008342;28;20101;-67
2023/09/17 00:37:18;;;;;;;34.03;19.23;;;;;;;;;;5009187;28;20014;-67
2023/09/17 00:39:43;;;;;;;32.03;18.98;;;;;;;;;;4991325;28;20109;-67
2023/09/17 00:42:09;;;;;;;34.72;20.00;;;;;;;;;;5009106;28;20524;-68
2023/09/17 00:44:35;;;;;;;35.00;19.73;;;;;;;;;;5008694;28;20025;-67
2023/09/17 00:47:03;;;;;;;29.33;17.73;;;;;;;;;;5005883;28;20539;-67
2023/09/17 00:49:28;;;;;;;25.60;17.27;;;;;;;;;;5009095;28;20296;-70
2023/09/17 00:51:53;;;;;;;28.27;17.58;;;;;;;;;;4990978;28;20021;-67
2023/09/17 00:54:21;;;;;;;29.75;16.48;;;;;;;;;;5008216;28;20026;-67
2023/09/17 00:56:47;;;;;;;30.77;18.17;;;;;;;;;;5008209;28;20033;-68
2023/09/17 00:59:12;;;;;;;28.55;18.05;;;;;;;;;;5008913;28;20097;-68
2023/09/17 01:01:37;;;;;;;28.65;18.27;;;;;;;;;;5007077;28;20022;-67
2023/09/17 01:04:03;;;;;;;34.05;18.92;;;;;;;;;;5006851;28;20029;-66
2023/09/17 01:06:28;;;;;;;30.75;18.17;;;;;;;;;;5007875;28;20022;-67
2023/09/17 01:08:54;;;;;;;30.75;18.75;;;;;;;;;;4990231;28;20198;-67
2023/09/17 01:11:19;;;;;;;36.33;18.75;;;;;;;;;;5012259;28;20014;-64
2023/09/17 01:14:00;;;;;;;37.75;19.80;;;;;;;;;;5011266;28;20096;-66
2023/09/17 01:16:26;;;;;;;30.85;17.92;;;;;;;;;;5012461;28;20010;-67
2023/09/17 01:18:53;;;;;;;33.10;18.20;;;;;;;;;;5012606;28;20021;-66
2023/09/17 01:21:26;;;;;;;29.35;16.20;;;;;;;;;;5012735;28;20032;-67
2023/09/17 01:24:13;;;;;;;25.98;15.02;;;;;;;;;;5011984;28;20022;-67
2023/09/17 01:26:39;;;;;;;24.77;16.63;;;;;;;;;;5011596;28;20033;-68
2023/09/17 01:29:05;;;;;;;28.42;15.88;;;;;;;;;;5004658;28;20025;-66
2023/09/17 01:31:30;;;;;;;27.58;15.45;;;;;;;;;;5011701;28;20026;-65
2023/09/17 01:33:55;;;;;;;27.98;16.25;;;;;;;;;;4993903;28;20049;-70
2023/09/17 01:36:33;;;;;;;31.58;17.17;;;;;;;;;;5011909;28;20416;-67
2023/09/17 01:39:04;;;;;;;28.00;15.63;;;;;;;;;;5012026;28;20029;-67
2023/09/17 01:41:30;;;;;;;29.70;16.52;;;;;;;;;;5011268;28;20014;-67
2023/09/17 01:43:55;;;;;;;24.30;14.52;;;;;;;;;;5011463;28;20033;-66
2023/09/17 01:46:22;;;;;;;30.42;15.35;;;;;;;;;;5012240;28;20014;-68
2023/09/17 01:48:49;;;;;;;26.40;15.30;;;;;;;;;;5011981;28;20378;-67
2023/09/17 01:51:15;;;;;;;26.38;16.00;;;;;;;;;;5012138;28;20025;-68
2023/09/17 01:53:41;;;;;;;25.08;14.60;;;;;;;;;;4994026;28;20025;-67
2023/09/17 01:56:06;;;;;;;26.77;14.05;;;;;;;;;;5011123;28;20442;-65
2023/09/17 01:58:33;;;;;;;24.83;14.27;;;;;;;;;;5011991;28;20018;-69
2023/09/17 02:00:59;;;;;;;26.33;15.68;;;;;;;;;;5011149;28;20496;-67
2023/09/17 02:03:24;;;;;;;30.20;17.38;;;;;;;;;;5011701;28;20339;-67
2023/09/17 02:05:49;;;;;;;26.70;13.77;;;;;;;;;;5011041;28;20022;-68
2023/09/17 02:08:14;;;;;;;26.23;14.18;;;;;;;;;;5011615;28;20488;-68
2023/09/17 02:10:40;;;;;;;23.15;14.63;;;;;;;;;;5011169;28;20378;-67
2023/09/17 02:13:06;;;;;;;26.33;13.23;;;;;;;;;;5011680;28;20014;-67
2023/09/17 02:15:32;;;;;;;31.38;15.27;;;;;;;;;;5011208;28;20041;-67
2023/09/17 02:17:57;;;;;;;31.30;14.43;;;;;;;;;;5011477;28;20054;-69
2023/09/17 02:20:22;;;;;;;25.77;14.63;;;;;;;;;;5012797;28;20036;-65
2023/09/17 02:22:47;;;;;;;31.92;14.30;;;;;;;;;;4992961;28;20473;-68
2023/09/17 02:25:13;;;;;;;27.98;13.48;;;;;;;;;;5010729;28;20022;-68
2023/09/17 02:27:38;;;;;;;26.90;13.80;;;;;;;;;;5011569;28;20481;-67
2023/09/17 02:30:04;;;;;;;24.58;14.00;;;;;;;;;;5010679;28;20030;-68
2023/09/17 02:32:30;;;;;;;28.15;13.98;;;;;;;;;;5011351;28;20014;-67
2023/09/17 02:34:56;;;;;;;30.52;14.18;;;;;;;;;;5010464;28;20489;-67
2023/09/17 02:37:21;;;;;;;27.15;14.50;;;;;;;;;;5011294;28;20389;-66
2023/09/17 02:39:47;;;;;;;29.40;14.18;;;;;;;;;;5010453;28;20022;-66
2023/09/17 02:42:12;;;;;;;24.75;14.50;;;;;;;;;;5011355;28;20022;-66
2023/09/17 02:44:37;;;;;;;29.58;13.35;;;;;;;;;;5010584;28;20033;-67
2023/09/17 02:47:02;;;;;;;38.90;14.43;;;;;;;;;;5011007;28;20026;-68
2023/09/17 02:49:28;;;;;;;29.25;13.70;;;;;;;;;;5011070;28;20017;-69
2023/09/17 02:51:53;;;;;;;23.25;13.30;;;;;;;;;;5010642;28;20025;-68
2023/09/17 02:54:18;;;;;;;30.92;14.32;;;;;;;;;;4992794;28;20436;-69
2023/09/17 02:56:44;;;;;;;21.73;12.13;;;;;;;;;;5010230;28;20024;-68
2023/09/17 02:59:09;;;;;;;22.17;13.05;;;;;;;;;;5010702;28;20010;-67
2023/09/17 03:01:35;;;;;;;20.90;13.85;;;;;;;;;;5010550;28;20113;-65
2023/09/17 03:04:00;;;;;;;24.50;13.48;;;;;;;;;;5010249;28;20087;-71
2023/09/17 03:06:26;;;;;;;28.98;14.20;;;;;;;;;;5010656;28;20014;-67
2023/09/17 03:08:51;;;;;;;25.02;13.20;;;;;;;;;;5010094;28;20080;-69
2023/09/17 03:11:17;;;;;;;30.20;12.75;;;;;;;;;;5010558;28;20018;-68
2023/09/17 03:13:46;;;;;;;25.67;13.77;;;;;;;;;;5009415;28;20518;-68
2023/09/17 03:16:15;;;;;;;21.80;13.73;;;;;;;;;;5010559;28;20022;-68
2023/09/17 03:18:40;;;;;;;;;;;;;;;;;;5010871;28;20029;-65
2023/09/17 03:21:06;;;;;;;22.42;13.00;;;;;;;;;;5010479;28;19905;-69
2023/09/17 03:23:31;;;;;;;24.08;13.20;;;;;;;;;;5010226;28;20049;-66
2023/09/17 03:25:56;;;;;;;18.83;12.05;;;;;;;;;;5009972;28;20021;-69
2023/09/17 03:28:22;;;;;;;21.83;12.02;;;;;;;;;;5010410;28;20018;-67
2023/09/17 03:30:47;;;;;;;28.35;12.80;;;;;;;;;;5010230;28;20018;-69
2023/09/17 03:33:13;;;;;;;22.98;12.68;;;;;;;;;;5009209;28;20014;-69
2023/09/17 03:35:39;;;;;;;26.15;12.68;;;;;;;;;;5010145;28;20018;-69
2023/09/17 03:38:04;;;;;;;21.33;12.13;;;;;;;;;;5010316;28;20080;-66
2023/09/17 03:40:31;;;;;;;23.92;12.52;;;;;;;;;;5010373;28;20037;-66
2023/09/17 03:42:56;;;;;;;23.63;13.05;;;;;;;;;;5010067;28;20049;-70
2023/09/17 03:45:22;;;;;;;25.65;12.95;;;;;;;;;;5009973;28;20551;-68
2023/09/17 03:47:47;;;;;;;22.35;12.60;;;;;;;;;;5009539;28;20025;-68
2023/09/17 03:50:14;;;;;;;25.95;13.63;;;;;;;;;;5009644;28;20075;-69
2023/09/17 03:52:45;;;;;;;21.92;11.70;;;;;;;;;;5009650;28;20122;-69
2023/09/17 03:55:11;;;;;;;22.98;12.65;;;;;;;;;;5009415;28;20053;-67
2023/09/17 03:57:37;;;;;;;24.73;12.52;;;;;;;;;;5009665;28;20535;-67
2023/09/17 04:00:13;;;;;;;27.05;13.02;;;;;;;;;;5009236;28;20010;-69
2023/09/17 04:02:38;;;;;;;22.70;12.48;;;;;;;;;;5009328;28;20018;-67
2023/09/17 04:05:14;;;;;;;18.42;11.55;;;;;;;;;;5008643;28;20020;-68
2023/09/17 04:07:40;;;;;;;21.13;11.02;;;;;;;;;;5009507;28;20018;-68
2023/09/17 04:10:06;;;;;;;21.15;11.38;;;;;;;;;;5009400;28;20022;-68
2023/09/17 04:12:32;;;;;;;24.20;11.70;;;;;;;;;;5009320;28;20044;-67
2023/09/17 04:14:57;;;;;;;22.48;11.32;;;;;;;;;;4991284;28;20021;-68
2023/09/17 04:17:23;;;;;;;17.50;10.75;;;;;;;;;;5009390;28;20177;-66
2023/09/17 04:19:48;;;;;;;16.27;10.27;;;;;;;;;;5009057;28;20021;-67
2023/09/17 04:22:13;;;;;;;23.30;11.27;;;;;;;;;;5009355;28;20500;-67
2023/09/17 04:24:38;;;;;;;21.38;10.75;;;;;;;;;;5009171;28;20016;-67
2023/09/17 04:27:04;;;;;;;19.05;11.75;;;;;;;;;;5009003;28;20014;-68
2023/09/17 04:29:29;;;;;;;18.20;9.95;;;;;;;;;;5009452;28;20025;-68
2023/09/17 04:31:54;;;;;;;16.98;9.70;;;;;;;;;;5008586;28;20484;-67
2023/09/17 04:34:20;;;;;;;21.35;9.63;;;;;;;;;;5008988;28;20044;-68
2023/09/17 04:36:45;;;;;;;24.10;10.82;;;;;;;;;;5008977;28;20014;-65
2023/09/17 04:39:13;;;;;;;18.23;10.40;;;;;;;;;;4992109;28;20014;-69
2023/09/17 04:41:39;;;;;;;18.40;9.60;;;;;;;;;;5008790;28;20084;-68
2023/09/17 04:44:07;;;;;;;20.73;11.57;;;;;;;;;;5009186;28;20033;-67
2023/09/17 04:46:32;;;;;;;22.73;10.55;;;;;;;;;;5013038;28;20474;-68
2023/09/17 04:48:57;;;;;;;20.13;10.23;;;;;;;;;;5012348;28;20105;-68
2023/09/17 04:51:23;;;;;;;14.60;9.63;;;;;;;;;;5012174;28;20028;-69
2023/09/17 04:53:48;;;;;;;16.75;10.23;;;;;;;;;;5012786;28;20106;-68
2023/09/17 04:56:13;;;;;;;16.20;10.07;;;;;;;;;;5013119;28;20025;-69
2023/09/17 04:58:38;;;;;;;18.25;9.80;;;;;;;;;;5012182;28;20021;-69
2023/09/17 05:01:04;;;;;;;18.50;10.00;;;;;;;;;;5011836;28;20010;-68
2023/09/17 05:03:30;;;;;;;19.60;10.85;;;;;;;;;;5012630;28;20097;-68
2023/09/17 05:05:56;;;;;;;15.95;10.63;;;;;;;;;;5012267;28;20105;-69
2023/09/17 05:08:21;;;;;;;17.35;10.35;;;;;;;;;;5013021;28;20086;-67
2023/09/17 05:10:46;;;;;;;20.75;11.32;;;;;;;;;;5012559;28;20033;-69
2023/09/17 05:13:12;;;;;;;20.77;11.35;;;;;;;;;;5012812;28;20026;-69
2023/09/17 05:15:37;;;;;;;20.65;11.43;;;;;;;;;;5012539;28;20033;-68
2023/09/17 05:18:09;;;;;;;19.80;10.82;;;;;;;;;;5012415;28;20029;-69
2023/09/17 05:20:35;;;;;;;19.10;11.13;;;;;;;;;;5012640;28;20030;-68
2023/09/17 05:23:00;;;;;;;18.48;10.85;;;;;;;;;;5011849;28;20045;-68
2023/09/17 05:25:26;;;;;;;15.82;10.88;;;;;;;;;;4994410;28;20025;-69
2023/09/17 05:27:51;;;;;;;20.35;9.75;;;;;;;;;;4994676;28;20477;-66
2023/09/17 05:30:17;;;;;;;19.52;10.80;;;;;;;;;;5005825;28;20033;-69
2023/09/17 05:32:43;;;;;;;19.10;11.30;;;;;;;;;;5011612;28;20030;-68
2023/09/17 05:35:08;;;;;;;16.70;9.27;;;;;;;;;;5011683;28;20014;-68
2023/09/17 05:37:33;;;;;;;20.23;9.68;;;;;;;;;;5012373;28;20030;-71
2023/09/17 05:39:58;;;;;;;16.55;9.02;;;;;;;;;;5011519;28;20239;-71
2023/09/17 05:42:24;;;;;;;15.27;9.53;;;;;;;;;;5011675;28;20105;-67
2023/09/17 05:44:49;;;;;;;14.88;9.27;;;;;;;;;;5009745;28;20278;-69
2023/09/17 05:47:14;;;;;;;15.63;9.27;;;;;;;;;;5010315;28;20481;-66
2023/09/17 05:49:39;;;;;;;17.83;9.35;;;;;;;;;;5011528;28;20292;-67
2023/09/17 05:52:05;;;;;;;19.45;10.30;;;;;;;;;;5011216;28;20014;-68
2023/09/17 05:54:30;;;;;;;18.20;8.88;;;;;;;;;;5011338;28;20026;-69
2023/09/17 05:56:55;;;;;;;17.58;10.40;;;;;;;;;;5010317;28;20044;-69
2023/09/17 05:59:20;;;;;;;18.25;9.57;;;;;;;;;;5011451;28;20018;-67
2023/09/17 06:01:46;;;;;;;20.88;9.50;;;;;;;;;;5003670;28;20121;-70
2023/09/17 06:04:11;;;;;;;16.67;8.63;;;;;;;;;;5011207;28;20068;-68
2023/09/17 06:06:36;;;;;;;15.02;9.93;;;;;;;;;;5011647;28;20176;-69
2023/09/17 06:09:01;;;;;;;16.02;9.38;;;;;;;;;;5010958;28;20033;-69
2023/09/17 06:11:27;;;;;;;17.10;9.15;;;;;;;;;;5011236;28;20057;-69
2023/09/17 06:13:52;;;;;;;17.52;9.38;;;;;;;;;;5009538;28;20015;-67
2023/09/17 06:16:17;;;;;;;15.05;8.48;;;;;;;;;;5011114;28;20014;-68
2023/09/17 06:18:42;;;;;;;14.80;8.40;;;;;;;;;;5010985;28;20018;-66
2023/09/17 06:21:08;;;;;;;15.15;9.10;;;;;;;;;;5011274;28;20080;-67
2023/09/17 06:23:33;;;;;;;17.10;9.00;;;;;;;;;;5011261;28;20536;-68
2023/09/17 06:25:59;;;;;;;16.13;9.00;;;;;;;;;;5010350;28;20026;-67
2023/09/17 06:28:24;;;;;;;17.20;8.52;;;;;;;;;;5011752;28;20613;-69
2023/09/17 06:30:49;;;;;;;17.70;8.57;;;;;;;;;;5010584;28;20034;-70
2023/09/17 06:33:15;;;;;;;16.77;8.10;;;;;;;;;;5010701;28;20037;-70
2023/09/17 06:35:40;;;;;;;15.88;8.07;;;;;;;;;;5010122;28;20033;-69
2023/09/17 06:38:05;;;;;;;15.30;8.52;;;;;;;;;;4992908;28;20071;-69
2023/09/17 06:40:30;;;;;;;16.60;7.75;;;;;;;;;;5011155;28;20033;-69
2023/09/17 06:42:56;;;;;;;14.40;7.50;;;;;;;;;;4992474;28;20050;-71
2023/09/17 06:45:21;;;;;;;14.57;7.90;;;;;;;;;;5010206;28;20032;-66
2023/09/17 06:47:47;;;;;;;14.88;7.93;;;;;;;;;;5010315;28;20123;-68
2023/09/17 06:50:13;;;;;;;15.13;7.95;;;;;;;;;;5010512;28;20114;-70
2023/09/17 06:52:38;;;;;;;14.25;7.50;;;;;;;;;;5010358;28;20018;-69
2023/09/17 06:55:04;;;;;;;16.50;6.88;;;;;;;;;;5009854;28;20033;-69
2023/09/17 06:57:30;;;;;;;18.15;8.38;;;;;;;;;;5010351;28;20051;-68
2023/09/17 06:59:55;;;;;;;10.43;6.25;;;;;;;;;;5009249;28;20033;-70
2023/09/17 07:02:20;;;;;;;15.88;7.82;;;;;;;;;;5010380;28;20065;-69
2023/09/17 07:04:46;;;;;;;13.63;7.25;;;;;;;;;;4991780;28;20057;-72
2023/09/17 07:07:11;;;;;;;19.23;7.00;;;;;;;;;;5010157;28;20060;-68
2023/09/17 07:09:36;;;;;;;14.48;7.20;;;;;;;;;;5009569;28;20503;-65
2023/09/17 07:12:01;;;;;;;12.13;6.70;;;;;;;;;;5008112;28;20604;-68
2023/09/17 07:14:28;;;;;;;12.20;6.57;;;;;;;;;;5009859;28;20050;-68
2023/09/17 07:16:53;;;;;;;10.27;6.00;;;;;;;;;;5009750;28;20492;-71
2023/09/17 07:19:18;;;;;;;17.20;6.40;;;;;;;;;;4992075;28;20028;-68
2023/09/17 07:21:43;;;;;;;13.05;6.40;;;;;;;;;;5007544;28;20366;-68
2023/09/17 07:24:09;;;;;;;12.43;7.77;;;;;;;;;;5007459;28;20028;-70
2023/09/17 07:26:34;;;;;;;14.80;6.78;;;;;;;;;;5006534;28;20329;-69
2023/09/17 07:28:59;;;;;;;10.10;6.60;;;;;;;;;;5009454;28;20022;-66
2023/09/17 07:31:25;;;;;;;12.75;6.93;;;;;;;;;;5007241;28;20481;-68
2023/09/17 07:33:50;;;;;;;13.77;6.70;;;;;;;;;;5008262;28;20113;-69
2023/09/17 07:36:15;;;;;;;12.27;7.10;;;;;;;;;;5006977;28;20102;-68
2023/09/17 07:38:41;;;;;;;12.65;6.50;;;;;;;;;;5009913;28;20868;-70
2023/09/17 07:41:06;;;;;;;14.15;5.85;;;;;;;;;;5009649;28;20021;-69
2023/09/17 07:43:31;;;;;;;9.43;6.00;;;;;;;;;;5009512;28;20022;-71
2023/09/17 07:45:57;;;;;;;10.00;5.18;;;;;;;;;;5008501;28;20028;-69
2023/09/17 07:48:24;;;;;;;10.00;5.83;;;;;;;;;;5007695;28;20025;-70
2023/09/17 07:50:59;;;;;;;9.35;5.57;;;;;;;;;;5010532;28;20286;-66
2023/09/17 07:53:25;;;;;;;10.50;4.90;;;;;;;;;;4999272;28;20025;-70
2023/09/17 07:55:50;;;;;;;8.63;5.50;;;;;;;;;;5009531;28;20033;-68
2023/09/17 07:58:15;;;;;;;11.25;5.70;;;;;;;;;;5009470;28;20109;-66
2023/09/17 08:00:45;;;;;;;10.88;5.10;;;;;;;;;;5007439;28;20160;-68
2023/09/17 08:03:10;;;;;;;11.75;6.68;;;;;;;;;;5006507;28;20021;-66
2023/09/17 08:05:35;;;;;;;13.10;5.80;;;;;;;;;;5007835;28;20026;-69
2023/09/17 08:08:01;;;;;;;9.65;5.43;;;;;;;;;;5009510;28;20026;-69
2023/09/17 08:10:26;;;;;;;20.10;5.78;;;;;;;;;;5008867;28;20109;-67
2023/09/17 08:12:51;;;;;;;8.82;5.60;;;;;;;;;;5009274;28;20014;-70
2023/09/17 08:15:18;;;;;;;8.50;5.03;;;;;;;;;;5007048;28;20018;-72
2023/09/17 08:17:44;;;;;;;13.52;6.03;;;;;;;;;;5008949;28;20033;-70
2023/09/17 08:20:09;;;;;;;10.32;5.90;;;;;;;;;;5008425;28;20014;-70
2023/09/17 08:22:35;;;;;;;17.27;5.93;;;;;;;;;;5009287;28;20068;-68
2023/09/17 08:25:00;;;;;;;8.60;5.60;;;;;;;;;;4989900;28;20069;-69
2023/09/17 08:27:26;;;;;;;9.90;5.57;;;;;;;;;;5009368;28;20029;-70
2023/09/17 08:29:51;;;;;;;10.48;5.53;;;;;;;;;;4990719;28;20021;-69
2023/09/17 08:32:16;;;;;;;11.53;6.30;;;;;;;;;;5008401;28;20017;-71
2023/09/17 08:34:41;;;;;;;19.65;6.75;;;;;;;;;;5007185;28;20279;-71
2023/09/17 08:37:07;;;;;;;8.93;6.07;;;;;;;;;;5008153;28;20087;-74
2023/09/17 08:39:32;;;;;;;9.07;5.80;;;;;;;;;;5008169;28;20021;-71
2023/09/17 08:42:00;;;;;;;9.55;5.90;;;;;;;;;;5008977;28;20032;-70
2023/09/17 08:44:30;;;;;;;11.02;6.25;;;;;;;;;;5008016;28;20183;-73
2023/09/17 08:46:57;;;;;;;9.82;6.32;;;;;;;;;;5006699;28;20045;-71
2023/09/17 08:49:23;;;;;;;9.85;6.07;;;;;;;;;;5006103;28;20553;-70
2023/09/17 08:51:50;;;;;;;9.73;6.10;;;;;;;;;;4989741;28;20148;-73
2023/09/17 08:54:24;;;;;;;9.95;6.60;;;;;;;;;;5007805;28;20022;-69
2023/09/17 08:56:50;;;;;;;10.77;6.70;;;;;;;;;;4990576;28;20153;-71
2023/09/17 08:59:26;;;;;;;13.18;5.63;;;;;;;;;;5007555;28;20096;-72
2023/09/17 09:01:51;;;;;;;8.75;5.53;;;;;;;;;;5005207;28;20101;-71
2023/09/17 09:04:17;;;;;;;10.38;5.63;;;;;;;;;;5006392;28;20105;-70
2023/09/17 09:06:43;;;;;;;11.48;5.72;;;;;;;;;;5006874;28;20060;-72
2023/09/17 09:09:08;;;;;;;9.52;6.45;;;;;;;;;;5005861;28;20049;-70
2023/09/17 09:11:37;;;;;;;10.95;5.68;;;;;;;;;;5006590;28;20061;-70
2023/09/17 09:14:06;;;;;;;11.93;5.50;;;;;;;;;;5004008;28;20043;-65
2023/09/17 09:16:37;;;;;;;15.20;6.40;;;;;;;;;;5005545;28;20476;-69
2023/09/17 09:19:03;;;;;;;10.73;6.53;;;;;;;;;;5004092;28;20059;-70
2023/09/17 09:21:28;;;;;;;9.70;6.10;;;;;;;;;;5007340;28;20105;-68
2023/09/17 09:23:54;;;;;;;10.60;6.00;;;;;;;;;;4985144;28;20018;-73
2023/09/17 09:26:20;;;;;;;12.23;6.82;;;;;;;;;;5005184;28;20022;-68
2023/09/17 09:28:45;;;;;;;9.63;5.90;;;;;;;;;;4984586;28;20041;-69
2023/09/17 09:31:11;;;;;;;10.25;6.50;;;;;;;;;;5006562;28;20416;-69
2023/09/17 09:33:36;;;;;;;11.68;6.13;;;;;;;;;;5007303;28;20025;-68
2023/09/17 09:36:02;;;;;;;13.57;6.22;;;;;;;;;;5008401;28;20590;-70
2023/09/17 09:38:28;;;;;;;8.00;4.88;;;;;;;;;;5004889;28;20147;-70
2023/09/17 09:40:53;;;;;;;10.95;5.80;;;;;;;;;;4995149;28;20026;-66
2023/09/17 09:43:30;;;;;;;8.23;5.28;;;;;;;;;;5009697;28;20026;-71
2023/09/17 09:45:55;;;;;;;9.25;5.10;;;;;;;;;;5009144;28;20033;-69
2023/09/17 09:48:20;;;;;;;12.13;5.45;;;;;;;;;;5006328;28;20014;-69
2023/09/17 09:50:47;;;;;;;11.48;5.40;;;;;;;;;;5008346;28;20022;-68
2023/09/17 09:53:14;;;;;;;7.65;4.90;;;;;;;;;;5007638;28;20048;-68
2023/09/17 09:55:39;;;;;;;10.27;4.93;;;;;;;;;;5008563;28;20020;-68
2023/09/17 09:58:05;;;;;;;12.63;5.20;;;;;;;;;;5009262;28;20014;-68
2023/09/17 10:00:32;;;;;;;10.90;4.85;;;;;;;;;;5009561;28;20052;-70
2023/09/17 10:02:57;;;;;;;9.73;4.82;;;;;;;;;;5008156;28;20018;-67
2023/09/17 10:05:33;;;;;;;13.35;4.95;;;;;;;;;;5008737;28;20176;-69
2023/09/17 10:07:58;;;;;;;11.77;4.45;;;;;;;;;;5008282;28;20567;-68
2023/09/17 10:10:23;;;;;;;7.07;4.60;;;;;;;;;;5010217;28;20022;-70
2023/09/17 10:12:51;;;;;;;8.35;4.30;;;;;;;;;;5008966;28;20026;-70
2023/09/17 10:15:16;;;;;;;7.00;4.32;;;;;;;;;;5005434;28;20010;-67
2023/09/17 10:17:42;;;;;;;7.55;4.10;;;;;;;;;;5009459;28;20608;-67
2023/09/17 10:20:08;;;;;;;8.73;4.20;;;;;;;;;;5008435;28;20093;-68
2023/09/17 10:22:34;;;;;;;9.50;4.22;;;;;;;;;;5005233;28;20028;-69
2023/09/17 10:25:01;;;;;;;7.30;4.28;;;;;;;;;;5007009;28;20392;-70
2023/09/17 10:27:26;;;;;;;6.93;3.70;;;;;;;;;;4989242;28;20480;-68
2023/09/17 10:29:53;;;;;;;8.75;3.80;;;;;;;;;;5007482;28;20048;-69
2023/09/17 10:32:18;;;;;;;8.13;4.57;;;;;;;;;;5010609;28;20057;-69
2023/09/17 10:34:45;;;;;;;6.85;3.75;;;;;;;;;;5009089;28;20065;-67
2023/09/17 10:37:14;;;;;;;7.55;3.50;;;;;;;;;;5008564;28;20013;-66
2023/09/17 10:39:39;;;;;;;6.80;3.78;;;;;;;;;;5009765;28;20026;-68
2023/09/17 10:42:05;;;;;;;7.85;3.65;;;;;;;;;;5009748;28;20029;-66
2023/09/17 10:44:36;;;;;;;9.85;3.40;;;;;;;;;;5008954;28;20397;-67
2023/09/17 10:47:03;;;;;;;7.25;3.63;;;;;;;;;;5010015;28;20026;-66
2023/09/17 10:49:31;;;;;;;6.90;3.00;;;;;;;;;;5008540;28;20167;-68
2023/09/17 10:51:57;;;;;;;7.43;3.03;;;;;;;;;;4996510;28;20041;-69
2023/09/17 10:54:22;;;;;;;6.20;2.90;;;;;;;;;;4992388;28;20018;-68
2023/09/17 10:56:47;;;;;;;6.72;3.00;;;;;;;;;;5028064;23;20052;-68
2023/09/17 10:59:14;;;;;;;5.80;3.20;;;;;;;;;;5007545;28;20107;-68
2023/09/17 11:01:41;;;;;;;6.78;3.38;;;;;;;;;;5007273;28;20025;-68
2023/09/17 11:04:12;;;;;;;5.60;3.20;;;;;;;;;;5007816;28;20021;-68
2023/09/17 11:06:37;;;;;;;8.02;3.38;;;;;;;;;;5008348;28;20099;-67
2023/09/17 11:09:04;;;;;;;5.10;2.90;;;;;;;;;;5007146;28;20666;-72
2023/09/17 11:11:30;;;;;;;5.35;3.00;;;;;;;;;;5008846;28;20032;-69
2023/09/17 11:13:55;;;;;;;6.32;3.30;;;;;;;;;;5008874;28;20022;-67
2023/09/17 11:16:23;;;;;;;5.45;3.00;;;;;;;;;;5006672;28;20076;-70
2023/09/17 11:19:05;;;;;;;5.97;3.40;;;;;;;;;;5008129;28;20026;-70
2023/09/17 11:21:33;;;;;;;5.30;2.97;;;;;;;;;;5008144;28;20034;-67
2023/09/17 11:23:58;;;;;;;7.57;3.30;;;;;;;;;;5007544;28;20022;-69
2023/09/17 11:26:27;;;;;;;20.23;3.80;;;;;;;;;;4982278;28;20663;-68
2023/09/17 11:28:56;;;;;;;4.78;2.95;;;;;;;;;;5000564;28;20029;-68
2023/09/17 11:31:22;;;;;;;18.85;7.20;;;;;;;;;;5001134;28;20259;-69
2023/09/17 11:33:48;;;;;;;10.95;4.65;;;;;;;;;;5000112;28;20132;-69
2023/09/17 11:36:14;;;;;;;5.63;2.65;;;;;;;;;;4999020;28;20431;-69
2023/09/17 11:38:44;;;;;;;7.70;3.00;;;;;;;;;;4998925;28;20044;-67
2023/09/17 11:41:10;;;;;;;5.90;2.90;;;;;;;;;;4999263;28;20026;-68
2023/09/17 11:43:36;;;;;;;12.73;2.80;;;;;;;;;;5000183;28;20631;-67
2023/09/17 11:46:04;;;;;;;5.53;3.08;;;;;;;;;;5000878;28;20022;-68
2023/09/17 11:48:29;;;;;;;8.38;3.03;;;;;;;;;;4999829;28;20025;-70
2023/09/17 11:51:14;;;;;;;5.68;2.97;;;;;;;;;;5000839;28;20038;-68
2023/09/17 11:53:56;;;;;;;6.18;2.97;;;;;;;;;;5000414;28;20022;-72
2023/09/17 11:56:22;;;;;;;6.38;2.92;;;;;;;;;;5001453;28;20163;-69
2023/09/17 11:59:00;;;;;;;7.30;2.97;;;;;;;;;;4999618;28;20710;-71
2023/09/17 12:01:28;;;;;;;5.00;2.50;;;;;;;;;;5001255;28;20488;-69
2023/09/17 12:03:54;;;;;;;4.60;2.60;;;;;;;;;;5000079;28;20104;-68
2023/09/17 12:06:20;;;;;;;12.88;3.13;;;;;;;;;;5000191;28;20013;-70
2023/09/17 12:08:45;;;;;;;18.88;3.50;;;;;;;;;;5005102;28;20033;-66
2023/09/17 12:11:21;;;;;;;6.90;2.90;;;;;;;;;;5004951;28;20121;-71
2023/09/17 12:13:47;;;;;;;13.20;3.20;;;;;;;;;;5005209;28;20030;-67
2023/09/17 12:16:12;;;;;;;7.45;3.13;;;;;;;;;;5004896;28;20075;-69
2023/09/17 12:18:37;;;;;;;9.45;3.20;;;;;;;;;;5004448;28;20022;-69
2023/09/17 12:21:09;;;;;;;5.00;2.60;;;;;;;;;;5005173;28;20385;-68
2023/09/17 12:24:06;;;;;;;6.43;2.70;;;;;;;;;;5004739;28;20033;-68
2023/09/17 12:26:46;;;;;;;6.78;2.65;;;;;;;;;;5002880;28;20030;-68
2023/09/17 12:29:11;;;;;;;5.55;3.30;;;;;;;;;;5000290;28;20093;-68
2023/09/17 12:31:37;;;;;;;6.60;2.92;;;;;;;;;;5007795;28;20109;-69
2023/09/17 12:34:06;;;;;;;5.55;2.90;;;;;;;;;;5007770;28;20010;-68
2023/09/17 12:36:31;;;;;;;4.82;2.63;;;;;;;;;;5007367;28;20489;-66
2023/09/17 12:38:56;;;;;;;8.80;3.20;;;;;;;;;;5006665;28;20125;-69
2023/09/17 12:41:22;;;;;;;8.15;3.22;;;;;;;;;;5008008;28;20126;-70
2023/09/17 12:43:47;;;;;;;4.55;2.80;;;;;;;;;;5007657;28;20544;-69
2023/09/17 12:46:13;;;;;;;5.57;2.83;;;;;;;;;;5007120;28;20037;-66
2023/09/17 12:48:38;;;;;;;5.65;2.72;;;;;;;;;;5006630;28;20317;-69
2023/09/17 12:51:04;;;;;;;6.30;2.70;;;;;;;;;;5007128;28;20069;-68
2023/09/17 12:53:29;;;;;;;9.70;2.65;;;;;;;;;;5007545;28;20085;-69
2023/09/17 12:55:57;;;;;;;4.95;3.20;;;;;;;;;;5006749;28;20222;-68
2023/09/17 12:58:22;;;;;;;5.53;2.47;;;;;;;;;;5007603;28;20017;-69
2023/09/17 13:00:47;;;;;;;7.65;2.70;;;;;;;;;;5007069;28;20029;-69
2023/09/17 13:03:14;;;;;;;5.63;2.55;;;;;;;;;;5007155;28;20018;-70
2023/09/17 13:05:40;;;;;;;5.95;2.67;;;;;;;;;;5007195;28;20068;-66
2023/09/17 13:08:06;;;;;;;6.28;2.50;;;;;;;;;;5011240;28;20130;-68
2023/09/17 13:10:31;;;;;;;4.10;2.30;;;;;;;;;;5012091;28;20060;-66
2023/09/17 13:12:56;;;;;;;5.70;2.22;;;;;;;;;;5011165;28;20117;-67
2023/09/17 13:15:22;;;;;;;4.88;2.65;;;;;;;;;;5011018;28;20006;-69
2023/09/17 13:17:47;;;;;;;7.30;2.72;;;;;;;;;;5010835;28;20120;-70
2023/09/17 13:20:12;;;;;;;5.15;2.20;;;;;;;;;;5013626;28;20029;-68
2023/09/17 13:22:38;;;;;;;5.88;2.60;;;;;;;;;;5011430;28;20021;-68
2023/09/17 13:25:04;;;;;;;7.30;2.30;;;;;;;;;;5007296;28;20025;-70
2023/09/17 13:27:29;;;;;;;4.68;2.72;;;;;;;;;;5011767;28;20010;-69
2023/09/17 13:29:56;;;;;;;4.75;2.33;;;;;;;;;;5010771;28;20069;-69
2023/09/17 13:32:21;;;;;;;6.75;2.40;;;;;;;;;;5012936;28;20105;-68
2023/09/17 13:34:47;;;;;;;6.53;2.17;;;;;;;;;;5012184;28;20464;-68
2023/09/17 13:37:13;;;;;;;3.38;1.90;;;;;;;;;;5003811;28;20318;-70
2023/09/17 13:39:39;;;;;;;5.95;2.08;;;;;;;;;;5011799;28;20018;-66
2023/09/17 13:42:04;;;;;;;11.63;2.25;;;;;;;;;;4993031;28;20018;-68
2023/09/17 13:44:29;;;;;;;7.45;2.35;;;;;;;;;;5010677;28;20557;-69
2023/09/17 13:46:55;;;;;;;3.95;2.05;;;;;;;;;;5010671;28;20041;-68
2023/09/17 13:49:21;;;;;;;5.30;2.45;;;;;;;;;;5009003;28;20463;-66
2023/09/17 13:51:46;;;;;;;4.30;2.08;;;;;;;;;;4992350;28;20104;-68
2023/09/17 13:54:11;;;;;;;5.50;2.50;;;;;;;;;;5010038;28;20010;-66
2023/09/17 13:56:36;;;;;;;8.05;2.00;;;;;;;;;;5010047;28;20306;-68
2023/09/17 13:59:02;;;;;;;12.60;2.37;;;;;;;;;;5010497;28;20449;-68
2023/09/17 14:01:27;;;;;;;10.35;2.55;;;;;;;;;;5009658;28;20317;-66
2023/09/17 14:03:52;;;;;;;8.57;2.05;;;;;;;;;;5010360;28;20101;-68
2023/09/17 14:06:17;;;;;;;7.07;2.40;;;;;;;;;;5010154;28;20057;-66
2023/09/17 14:08:43;;;;;;;5.07;2.40;;;;;;;;;;5010351;28;20258;-70
2023/09/17 14:11:08;;;;;;;6.43;2.20;;;;;;;;;;5009236;28;20037;-66
2023/09/17 14:13:35;;;;;;;6.40;1.83;;;;;;;;;;5010158;28;20158;-68
2023/09/17 14:16:01;;;;;;;11.15;2.20;;;;;;;;;;5008972;28;20018;-68
2023/09/17 14:18:27;;;;;;;7.80;2.38;;;;;;;;;;5008759;28;20117;-66
2023/09/17 14:20:52;;;;;;;4.40;2.03;;;;;;;;;;5008888;28;20025;-69
2023/09/17 14:23:17;;;;;;;5.47;2.00;;;;;;;;;;5008561;28;20026;-68
2023/09/17 14:25:42;;;;;;;4.10;2.10;;;;;;;;;;5007068;28;20485;-69